createdAt,value
2023-04-18T00:00:37.864Z,99.90
2023-04-18T00:03:09.586Z,99.90
2023-04-18T00:05:37.994Z,99.90
2023-04-18T00:08:06.118Z,99.90
2023-04-18T00:10:34.086Z,99.90
2023-04-18T00:13:02.064Z,99.90
2023-04-18T00:15:30.423Z,99.90
2023-04-18T00:17:58.614Z,99.90
2023-04-18T00:20:27.919Z,99.90
2023-04-18T00:22:56.088Z,99.90
2023-04-18T00:25:24.048Z,99.90
2023-04-18T00:27:52.057Z,99.90
2023-04-18T00:30:20.032Z,99.90
2023-04-18T00:32:48.006Z,99.90
2023-04-18T00:35:16.027Z,99.90
2023-04-18T00:37:45.376Z,99.90
2023-04-18T00:40:13.589Z,99.90
2023-04-18T00:42:41.581Z,99.90
2023-04-18T00:45:10.520Z,99.90
2023-04-18T00:47:38.473Z,99.90
2023-04-18T00:50:07.799Z,99.90
2023-04-18T00:52:36.003Z,99.90
2023-04-18T00:55:07.267Z,99.90
2023-04-18T00:57:36.015Z,99.90
2023-04-18T01:00:08.689Z,99.90
2023-04-18T01:02:37.015Z,99.90
2023-04-18T01:05:06.160Z,99.90
2023-04-18T01:07:37.250Z,99.90
2023-04-18T01:10:07.937Z,99.90
2023-04-18T01:12:49.671Z,99.90
2023-04-18T01:15:18.382Z,99.90
2023-04-18T01:17:47.282Z,99.90
2023-04-18T01:20:16.717Z,99.90
2023-04-18T01:22:44.677Z,99.90
2023-04-18T01:25:14.667Z,99.90
2023-04-18T01:27:43.357Z,99.90
2023-04-18T01:30:12.545Z,99.90
2023-04-18T01:32:40.703Z,99.90
2023-04-18T01:35:09.749Z,99.90
2023-04-18T01:37:37.808Z,99.90
2023-04-18T01:40:06.752Z,99.90
2023-04-18T01:42:36.190Z,99.90
2023-04-18T01:45:04.974Z,99.90
2023-04-18T01:47:32.947Z,99.90
2023-04-18T01:50:00.982Z,99.90
2023-04-18T01:52:32.210Z,99.90
2023-04-18T01:55:02.056Z,99.90
2023-04-18T01:57:30.418Z,99.90
2023-04-18T01:59:59.760Z,99.90
2023-04-18T02:02:27.895Z,99.90
2023-04-18T02:04:55.945Z,99.90
2023-04-18T02:07:23.946Z,99.90
2023-04-18T02:09:52.321Z,99.90
2023-04-18T02:12:20.380Z,99.90
2023-04-18T02:14:53.961Z,99.90
2023-04-18T02:17:24.084Z,99.90
2023-04-18T02:19:52.538Z,99.90
2023-04-18T02:22:21.551Z,99.90
2023-04-18T02:24:49.465Z,99.90
2023-04-18T02:27:17.439Z,99.90
2023-04-18T02:29:45.737Z,99.90
2023-04-18T02:32:13.744Z,99.90
2023-04-18T02:34:46.354Z,99.90
2023-04-18T02:37:14.297Z,99.90
2023-04-18T02:39:42.243Z,99.90
2023-04-18T02:42:10.315Z,99.90
2023-04-18T02:44:38.295Z,99.90
2023-04-18T02:47:06.351Z,99.90
2023-04-18T02:49:39.611Z,99.90
2023-04-18T02:52:09.009Z,99.90
2023-04-18T02:54:37.550Z,99.90
2023-04-18T02:57:10.378Z,99.90
2023-04-18T02:59:53.914Z,99.90
2023-04-18T03:02:40.598Z,99.90
2023-04-18T03:05:24.344Z,99.90
2023-04-18T03:07:56.678Z,99.90
2023-04-18T03:10:24.785Z,99.90
2023-04-18T03:12:52.980Z,99.90
2023-04-18T03:15:22.040Z,99.90
2023-04-18T03:17:50.964Z,99.90
2023-04-18T03:20:22.201Z,99.90
2023-04-18T03:22:50.218Z,99.90
2023-04-18T03:25:23.810Z,99.90
2023-04-18T03:27:54.057Z,99.90
2023-04-18T03:30:24.002Z,99.90
2023-04-18T03:32:57.102Z,99.90
2023-04-18T03:35:25.126Z,99.90
2023-04-18T03:37:53.161Z,99.90
2023-04-18T03:40:32.290Z,99.90
2023-04-18T03:43:09.340Z,99.90
2023-04-18T03:45:37.545Z,99.90
2023-04-18T03:48:07.149Z,99.90
2023-04-18T03:50:39.221Z,99.90
2023-04-18T03:53:11.104Z,99.90
2023-04-18T03:55:43.732Z,99.90
2023-04-18T03:58:14.910Z,99.90
2023-04-18T04:00:42.944Z,99.90
2023-04-18T04:03:12.428Z,99.90
2023-04-18T04:05:41.334Z,99.90
2023-04-18T04:08:09.313Z,99.90
2023-04-18T04:10:37.441Z,99.90
2023-04-18T04:13:07.049Z,99.90
2023-04-18T04:15:38.634Z,99.90
2023-04-18T04:18:09.057Z,99.90
2023-04-18T04:20:40.305Z,99.90
2023-04-18T04:23:13.770Z,99.90
2023-04-18T04:25:46.357Z,99.90
2023-04-18T04:28:36.725Z,99.90
2023-04-18T04:31:09.320Z,99.90
2023-04-18T04:33:38.790Z,99.90
2023-04-18T04:36:15.209Z,99.90
2023-04-18T04:38:45.674Z,99.90
2023-04-18T04:41:13.963Z,99.90
2023-04-18T04:43:43.371Z,99.90
2023-04-18T04:46:14.829Z,99.90
2023-04-18T04:48:44.184Z,99.90
2023-04-18T04:51:12.291Z,99.90
2023-04-18T04:53:40.349Z,99.90
2023-04-18T04:56:09.372Z,99.90
2023-04-18T04:58:37.988Z,99.90
2023-04-18T05:01:15.137Z,99.90
2023-04-18T05:03:43.529Z,99.90
2023-04-18T05:06:11.875Z,99.90
2023-04-18T05:08:39.933Z,99.90
2023-04-18T05:11:07.922Z,99.90
2023-04-18T05:13:35.966Z,99.90
2023-04-18T05:16:04.198Z,99.90
2023-04-18T05:18:35.041Z,99.90
2023-04-18T05:21:03.148Z,99.90
2023-04-18T05:23:31.258Z,99.90
2023-04-18T05:25:59.324Z,99.90
2023-04-18T05:28:27.688Z,99.90
2023-04-18T05:31:01.087Z,99.90
2023-04-18T05:33:29.361Z,99.90
2023-04-18T05:35:59.536Z,99.90
2023-04-18T05:38:32.659Z,99.90
2023-04-18T05:41:02.981Z,99.90
2023-04-18T05:43:31.085Z,99.90
2023-04-18T05:45:59.060Z,99.90
2023-04-18T05:48:27.096Z,99.90
2023-04-18T05:50:55.034Z,99.90
2023-04-18T05:53:24.589Z,99.90
2023-04-18T05:55:53.992Z,99.90
2023-04-18T05:58:22.177Z,99.90
2023-04-18T06:00:50.677Z,99.90
2023-04-18T06:03:18.989Z,99.90
2023-04-18T06:05:47.220Z,99.90
2023-04-18T06:08:15.448Z,99.90
2023-04-18T06:10:44.812Z,99.90
2023-04-18T06:13:12.984Z,99.90
2023-04-18T06:15:41.151Z,99.90
2023-04-18T06:18:09.106Z,99.90
2023-04-18T06:20:37.266Z,99.90
2023-04-18T06:23:05.243Z,99.90
2023-04-18T06:25:33.336Z,99.90
2023-04-18T06:28:11.644Z,99.90
2023-04-18T06:30:41.760Z,99.90
2023-04-18T06:33:11.093Z,99.90
2023-04-18T06:35:39.638Z,99.90
2023-04-18T06:38:07.800Z,99.90
2023-04-18T06:40:36.211Z,99.90
2023-04-18T06:43:09.870Z,99.90
2023-04-18T06:45:41.608Z,99.90
2023-04-18T06:48:10.703Z,99.90
2023-04-18T06:50:38.992Z,99.90
2023-04-18T06:53:07.201Z,99.90
2023-04-18T06:55:35.375Z,99.90
2023-04-18T06:58:05.510Z,99.90
2023-04-18T07:00:33.643Z,99.90
2023-04-18T07:03:03.098Z,99.90
2023-04-18T07:05:31.344Z,99.90
2023-04-18T07:08:00.070Z,99.90
2023-04-18T07:10:32.728Z,99.90
2023-04-18T07:13:05.681Z,99.90
2023-04-18T07:15:35.675Z,99.90
2023-04-18T07:18:03.678Z,99.90
2023-04-18T07:20:31.758Z,99.90
2023-04-18T07:22:59.847Z,99.90
2023-04-18T07:25:27.909Z,99.90
2023-04-18T07:27:55.970Z,99.90
2023-04-18T07:30:26.339Z,99.90
2023-04-18T07:32:54.482Z,99.90
2023-04-18T07:35:22.795Z,99.90
2023-04-18T07:37:53.890Z,99.90
2023-04-18T07:40:22.319Z,99.90
2023-04-18T07:42:50.290Z,99.90
2023-04-18T07:45:19.120Z,99.90
2023-04-18T07:47:48.616Z,99.90
2023-04-18T07:50:16.618Z,99.90
2023-04-18T07:52:47.638Z,99.90
2023-04-18T07:55:15.760Z,99.90
2023-04-18T07:57:45.881Z,99.90
2023-04-18T08:00:15.865Z,99.90
2023-04-18T08:02:43.988Z,99.90
2023-04-18T08:05:13.497Z,99.90
2023-04-18T08:07:41.813Z,99.90
2023-04-18T08:10:10.461Z,99.90
2023-04-18T08:12:38.896Z,99.90
2023-04-18T08:15:08.163Z,99.90
2023-04-18T08:17:36.251Z,99.90
2023-04-18T08:20:07.256Z,99.90
2023-04-18T08:22:44.031Z,99.90
2023-04-18T08:25:18.910Z,99.90
2023-04-18T08:27:46.965Z,99.90
2023-04-18T08:30:15.764Z,99.90
2023-04-18T08:32:43.817Z,99.90
2023-04-18T08:35:11.919Z,99.90
2023-04-18T08:37:41.646Z,99.90
2023-04-18T08:40:10.105Z,99.90
2023-04-18T08:42:38.451Z,95.90
2023-04-18T08:45:07.623Z,99.90
2023-04-18T08:47:36.343Z,98.20
2023-04-18T08:50:04.989Z,99.90
2023-04-18T08:52:34.175Z,98.30
2023-04-18T08:55:03.868Z,98.20
2023-04-18T08:57:33.332Z,99.90
2023-04-18T09:00:01.983Z,99.90
2023-04-18T09:02:42.057Z,93.40
2023-04-18T09:05:14.440Z,94.40
2023-04-18T09:07:43.016Z,94.60
2023-04-18T09:10:13.875Z,91.70
2023-04-18T09:12:50.114Z,94.80
2023-04-18T09:15:22.537Z,97.90
2023-04-18T09:17:53.440Z,91.40
2023-04-18T09:20:35.871Z,90.50
2023-04-18T09:23:05.417Z,92.50
2023-04-18T09:25:40.051Z,90.00
2023-04-18T09:28:24.350Z,94.00
2023-04-18T09:30:53.179Z,94.40
2023-04-18T09:33:28.220Z,98.70
2023-04-18T09:35:56.411Z,96.00
2023-04-18T09:38:39.693Z,84.70
2023-04-18T09:41:13.096Z,79.20
2023-04-18T09:43:41.481Z,89.60
2023-04-18T09:46:10.066Z,91.60
2023-04-18T09:48:38.081Z,89.90
2023-04-18T09:51:07.957Z,83.00
2023-04-18T09:53:39.440Z,92.80
2023-04-18T09:56:10.680Z,92.00
2023-04-18T09:58:42.870Z,85.20
2023-04-18T10:01:13.125Z,90.30
2023-04-18T10:03:47.571Z,92.60
2023-04-18T10:06:17.892Z,91.20
2023-04-18T10:08:47.421Z,91.60
2023-04-18T10:11:15.813Z,91.20
2023-04-18T10:13:48.807Z,92.30
2023-04-18T10:16:18.149Z,95.70
2023-04-18T10:18:46.302Z,95.20
2023-04-18T10:21:14.511Z,96.90
2023-04-18T10:23:42.598Z,92.40
2023-04-18T10:26:11.822Z,92.40
2023-04-18T10:28:56.601Z,87.60
2023-04-18T10:31:25.838Z,86.10
2023-04-18T10:36:28.574Z,77.00
2023-04-18T10:39:01.176Z,76.90
2023-04-18T10:41:30.434Z,80.50
2023-04-18T10:44:19.397Z,78.80
2023-04-18T10:47:22.937Z,74.30
2023-04-18T10:50:00.950Z,60.90
2023-04-18T10:52:29.828Z,48.90
2023-04-18T10:55:09.120Z,46.90
2023-04-18T10:57:41.439Z,48.30
2023-04-18T11:00:14.386Z,48.80
2023-04-18T11:02:50.581Z,44.50
2023-04-18T11:05:24.237Z,46.90
2023-04-18T11:07:53.118Z,43.60
2023-04-18T11:10:23.742Z,43.40
2023-04-18T11:12:52.170Z,42.10
2023-04-18T11:15:22.866Z,36.30
2023-04-18T11:17:58.952Z,39.20
2023-04-18T11:20:27.434Z,39.70
2023-04-18T11:22:57.258Z,41.10
2023-04-18T11:25:28.012Z,42.20
2023-04-18T11:27:59.062Z,45.60
2023-04-18T11:30:29.806Z,45.30
2023-04-18T11:32:57.948Z,48.20
2023-04-18T11:35:26.044Z,52.30
2023-04-18T11:37:56.150Z,50.40
2023-04-18T11:40:24.445Z,52.60
2023-04-18T11:42:55.288Z,53.60
2023-04-18T11:45:23.338Z,53.40
2023-04-18T11:47:58.044Z,60.90
2023-04-18T11:50:26.763Z,60.40
2023-04-18T11:52:55.616Z,51.90
2023-04-18T11:55:25.393Z,55.40
2023-04-18T11:57:54.773Z,52.50
2023-04-18T12:00:33.533Z,47.70
2023-04-18T12:03:05.249Z,45.40
2023-04-18T12:05:35.087Z,45.20
2023-04-18T12:08:07.299Z,50.10
2023-04-18T12:10:35.904Z,46.40
2023-04-18T12:13:08.022Z,46.30
2023-04-18T12:15:39.743Z,48.70
2023-04-18T12:18:09.438Z,49.80
2023-04-18T12:20:39.266Z,54.70
2023-04-18T12:23:07.945Z,53.10
2023-04-18T12:25:36.432Z,47.40
2023-04-18T12:28:14.328Z,49.60
2023-04-18T12:30:43.222Z,52.20
2023-04-18T12:33:14.740Z,49.60
2023-04-18T12:35:43.627Z,50.50
2023-04-18T12:38:11.813Z,52.50
2023-04-18T12:40:40.707Z,49.20
2023-04-18T12:43:09.010Z,58.40
2023-04-18T12:45:37.029Z,52.30
2023-04-18T12:48:05.667Z,54.80
2023-04-18T12:50:35.918Z,60.50
2023-04-18T12:53:04.895Z,53.60
2023-04-18T12:55:33.026Z,49.40
2023-04-18T12:58:01.523Z,52.80
2023-04-18T13:00:32.984Z,57.30
2023-04-18T13:03:01.509Z,51.00
2023-04-18T13:05:33.522Z,49.60
2023-04-18T13:10:34.495Z,56.70
2023-04-18T13:13:02.467Z,51.20
2023-04-18T13:15:30.561Z,50.40
2023-04-18T13:18:04.234Z,50.40
2023-04-18T13:20:32.532Z,50.50
2023-04-18T13:23:00.708Z,51.80
2023-04-18T13:25:30.153Z,51.20
2023-04-18T13:27:58.487Z,48.90
2023-04-18T13:30:27.023Z,49.80
2023-04-18T13:32:55.204Z,45.50
2023-04-18T13:35:23.393Z,46.00
2023-04-18T13:37:51.610Z,42.10
2023-04-18T13:40:19.540Z,42.20
2023-04-18T13:42:48.864Z,40.50
2023-04-18T13:45:16.921Z,36.00
2023-04-18T13:47:45.099Z,36.30
2023-04-18T13:50:13.138Z,36.30
2023-04-18T13:52:41.122Z,36.60
2023-04-18T13:55:10.651Z,38.00
2023-04-18T13:57:38.691Z,38.20
2023-04-18T14:00:09.929Z,37.70
2023-04-18T14:02:41.374Z,38.40
2023-04-18T14:05:10.670Z,39.80
2023-04-18T14:07:39.337Z,36.00
2023-04-18T14:10:08.434Z,34.60
2023-04-18T14:12:36.969Z,34.70
2023-04-18T14:15:07.835Z,34.10
2023-04-18T14:17:35.919Z,33.00
2023-04-18T14:20:04.763Z,34.30
2023-04-18T14:22:35.059Z,35.40
2023-04-18T14:25:03.260Z,35.20
2023-04-18T14:27:31.289Z,34.60
2023-04-18T14:29:59.937Z,35.00
2023-04-18T14:32:31.058Z,34.40
2023-04-18T14:34:59.842Z,34.50
2023-04-18T14:37:27.951Z,35.80
2023-04-18T14:39:56.056Z,36.30
2023-04-18T14:42:24.096Z,35.50
2023-04-18T14:44:52.132Z,35.20
2023-04-18T14:47:20.131Z,33.20
2023-04-18T14:49:49.520Z,33.00
2023-04-18T14:52:17.529Z,31.50
2023-04-18T14:54:45.646Z,30.30
2023-04-18T14:57:13.864Z,29.70
2023-04-18T14:59:41.854Z,31.20
2023-04-18T15:02:10.070Z,30.50
2023-04-18T15:04:38.282Z,30.30
2023-04-18T15:07:07.906Z,30.00
2023-04-18T15:09:37.583Z,30.30
2023-04-18T15:12:06.796Z,29.90
2023-04-18T15:14:35.665Z,30.90
2023-04-18T15:17:04.522Z,30.00
2023-04-18T15:19:32.832Z,30.10
2023-04-18T15:22:00.944Z,31.10
2023-04-18T15:24:30.590Z,32.70
2023-04-18T15:26:58.841Z,32.80
2023-04-18T15:29:26.954Z,33.50
2023-04-18T15:31:54.974Z,32.10
2023-04-18T15:34:23.202Z,32.60
2023-04-18T15:36:51.374Z,32.90
2023-04-18T15:39:23.213Z,34.00
2023-04-18T15:41:55.086Z,33.70
2023-04-18T15:44:23.548Z,34.60
2023-04-18T15:46:51.815Z,35.30
2023-04-18T15:49:19.826Z,34.90
2023-04-18T15:51:47.783Z,35.80
2023-04-18T15:54:16.020Z,36.30
2023-04-18T15:56:44.791Z,35.70
2023-04-18T15:59:14.677Z,37.50
2023-04-18T16:01:45.674Z,37.10
2023-04-18T16:04:14.662Z,39.60
2023-04-18T16:06:43.215Z,42.60
2023-04-18T16:09:11.153Z,39.00
2023-04-18T16:11:39.548Z,39.60
2023-04-18T16:14:10.276Z,38.30
2023-04-18T16:16:39.722Z,37.90
2023-04-18T16:19:07.691Z,37.60
2023-04-18T16:21:35.800Z,38.30
2023-04-18T16:24:03.742Z,40.10
2023-04-18T16:26:31.780Z,40.60
2023-04-18T16:28:59.758Z,41.10
2023-04-18T16:31:27.960Z,40.60
2023-04-18T16:33:57.419Z,40.80
2023-04-18T16:36:25.845Z,42.90
2023-04-18T16:38:57.940Z,45.10
2023-04-18T16:41:26.910Z,49.80
2023-04-18T16:43:54.943Z,52.20
2023-04-18T16:46:23.055Z,50.90
2023-04-18T16:48:52.397Z,49.20
2023-04-18T16:51:21.974Z,49.50
2023-04-18T16:53:50.079Z,50.00
2023-04-18T16:56:18.006Z,50.80
2023-04-18T16:58:45.952Z,53.30
2023-04-18T17:01:14.014Z,58.20
2023-04-18T17:03:42.396Z,62.10
2023-04-18T17:06:10.420Z,62.90
2023-04-18T17:08:39.770Z,68.10
2023-04-18T17:11:07.728Z,72.50
2023-04-18T17:13:36.251Z,77.00
2023-04-18T17:16:04.545Z,80.80
2023-04-18T17:18:33.106Z,85.10
2023-04-18T17:21:01.012Z,89.10
2023-04-18T17:23:30.333Z,90.70
2023-04-18T17:26:00.947Z,87.30
2023-04-18T17:28:28.949Z,90.20
2023-04-18T17:30:57.480Z,85.60
2023-04-18T17:33:25.516Z,84.80
2023-04-18T17:35:53.591Z,78.10
2023-04-18T17:38:21.604Z,79.30
2023-04-18T17:40:49.815Z,71.00
2023-04-18T17:43:19.240Z,71.10
2023-04-18T17:45:52.602Z,62.80
2023-04-18T17:48:21.168Z,62.50
2023-04-18T17:50:49.215Z,56.50
2023-04-18T17:53:18.836Z,55.90
2023-04-18T17:55:50.378Z,54.90
2023-04-18T17:58:19.877Z,54.30
2023-04-18T18:00:48.237Z,52.00
2023-04-18T18:03:17.104Z,53.70
2023-04-18T18:05:47.035Z,54.00
2023-04-18T18:08:15.276Z,51.30
2023-04-18T18:10:44.335Z,52.60
2023-04-18T18:13:12.411Z,56.20
2023-04-18T18:15:41.904Z,54.10
2023-04-18T18:18:10.163Z,53.40
2023-04-18T18:20:38.238Z,56.80
2023-04-18T18:23:06.772Z,56.20
2023-04-18T18:25:36.972Z,55.60
2023-04-18T18:28:05.308Z,57.60
2023-04-18T18:30:33.555Z,58.50
2023-04-18T18:33:03.776Z,59.90
2023-04-18T18:35:31.857Z,61.70
2023-04-18T18:37:59.889Z,62.50
2023-04-18T18:40:27.976Z,65.20
2023-04-18T18:42:56.757Z,68.70
2023-04-18T18:45:24.891Z,72.10
2023-04-18T18:47:53.005Z,76.10
2023-04-18T18:50:22.612Z,76.50
2023-04-18T18:52:50.645Z,71.00
2023-04-18T18:55:18.624Z,70.30
2023-04-18T18:57:46.566Z,69.80
2023-04-18T19:00:14.977Z,67.70
2023-04-18T19:02:43.119Z,66.50
2023-04-18T19:05:12.765Z,66.80
2023-04-18T19:07:42.837Z,69.00
2023-04-18T19:10:11.716Z,67.00
2023-04-18T19:12:41.831Z,65.60
2023-04-18T19:15:11.091Z,64.70
2023-04-18T19:17:39.156Z,61.80
2023-04-18T19:20:09.043Z,61.60
2023-04-18T19:22:37.352Z,64.40
2023-04-18T19:25:07.824Z,61.20
2023-04-18T19:27:35.844Z,64.40
2023-04-18T19:30:03.942Z,59.80
2023-04-18T19:32:32.631Z,63.70
2023-04-18T19:35:00.793Z,64.20
2023-04-18T19:37:28.873Z,67.90
2023-04-18T19:39:59.403Z,70.60
2023-04-18T19:42:29.404Z,70.60
2023-04-18T19:44:57.722Z,73.10
2023-04-18T19:47:27.488Z,74.60
2023-04-18T19:49:58.917Z,76.90
2023-04-18T19:52:27.405Z,75.40
2023-04-18T19:54:56.666Z,78.00
2023-04-18T19:57:26.335Z,79.00
2023-04-18T19:59:56.610Z,81.80
2023-04-18T20:02:24.860Z,85.40
2023-04-18T20:04:55.055Z,87.20
2023-04-18T20:07:25.527Z,89.70
2023-04-18T20:09:54.318Z,91.60
2023-04-18T20:12:22.359Z,93.30
2023-04-18T20:14:50.456Z,96.60
2023-04-18T20:17:19.811Z,98.60
2023-04-18T20:19:49.616Z,99.90
2023-04-18T20:22:17.851Z,99.90
2023-04-18T20:24:46.145Z,99.90
2023-04-18T20:27:14.212Z,99.90
2023-04-18T20:29:42.298Z,99.90
2023-04-18T20:32:12.244Z,99.90
2023-04-18T20:34:41.679Z,99.90
2023-04-18T20:37:10.036Z,99.90
2023-04-18T20:39:39.876Z,99.90
2023-04-18T20:42:07.905Z,99.90
2023-04-18T20:44:36.002Z,99.90
2023-04-18T20:47:03.952Z,99.90
2023-04-18T20:49:32.024Z,99.90
2023-04-18T20:52:01.564Z,99.90
2023-04-18T20:54:29.568Z,99.90
2023-04-18T20:56:57.569Z,99.90
2023-04-18T20:59:25.774Z,99.90
2023-04-18T21:01:53.854Z,99.90
2023-04-18T21:04:22.349Z,99.90
2023-04-18T21:06:50.625Z,99.90
2023-04-18T21:09:19.993Z,99.90
2023-04-18T21:11:48.002Z,99.90
2023-04-18T21:14:17.220Z,99.90
2023-04-18T21:16:45.714Z,99.90
2023-04-18T21:19:15.573Z,99.90
2023-04-18T21:21:43.604Z,99.90
2023-04-18T21:24:11.679Z,99.90
2023-04-18T21:26:41.093Z,99.90
2023-04-18T21:29:11.180Z,99.90
2023-04-18T21:31:39.439Z,99.90
2023-04-18T21:34:07.476Z,99.90
2023-04-18T21:36:35.977Z,99.90
2023-04-18T21:39:04.647Z,99.90
2023-04-18T21:41:32.811Z,99.90
2023-04-18T21:44:02.242Z,99.90
2023-04-18T21:46:30.332Z,99.90
2023-04-18T21:48:58.350Z,99.90
2023-04-18T21:51:27.263Z,99.90
2023-04-18T21:53:55.410Z,99.90
2023-04-18T21:56:23.394Z,99.90
2023-04-18T21:58:51.433Z,99.90
2023-04-18T22:01:22.084Z,99.90
2023-04-18T22:03:50.253Z,99.90
2023-04-18T22:06:18.358Z,99.90
2023-04-18T22:08:46.535Z,99.90
2023-04-18T22:11:16.034Z,99.90
2023-04-18T22:13:44.737Z,99.90
2023-04-18T22:16:13.700Z,99.90
2023-04-18T22:18:43.165Z,99.90
2023-04-18T22:21:11.322Z,99.90
2023-04-18T22:23:39.421Z,99.90
2023-04-18T22:26:07.446Z,99.90
2023-04-18T22:28:35.581Z,99.90
2023-04-18T22:31:03.586Z,99.90
2023-04-18T22:33:31.571Z,99.90
2023-04-18T22:36:01.548Z,99.90
2023-04-18T22:38:29.474Z,99.90
2023-04-18T22:40:57.608Z,99.90
2023-04-18T22:43:26.957Z,99.90
2023-04-18T22:45:55.068Z,99.90
2023-04-18T22:48:23.648Z,99.90
2023-04-18T22:50:51.716Z,99.90
2023-04-18T22:53:21.373Z,99.90
2023-04-18T22:55:49.414Z,99.90
2023-04-18T22:58:17.415Z,99.90
2023-04-18T23:00:45.585Z,99.90
2023-04-18T23:03:15.631Z,99.90
2023-04-18T23:05:43.696Z,99.90
2023-04-18T23:08:12.142Z,99.90
2023-04-18T23:10:41.587Z,99.90
2023-04-18T23:13:09.583Z,99.90
2023-04-18T23:15:37.560Z,99.90
2023-04-18T23:18:05.729Z,99.90
2023-04-18T23:20:33.792Z,99.90
2023-04-18T23:23:01.934Z,99.90
2023-04-18T23:25:29.941Z,99.90
2023-04-18T23:27:59.482Z,99.90
2023-04-18T23:30:27.499Z,99.90
2023-04-18T23:32:55.821Z,99.90
2023-04-18T23:35:24.468Z,99.90
2023-04-18T23:37:52.472Z,99.90
2023-04-18T23:40:21.021Z,99.90
2023-04-18T23:42:49.037Z,99.90
2023-04-18T23:45:18.608Z,99.90
2023-04-18T23:47:46.623Z,99.90
2023-04-18T23:50:14.619Z,99.90
2023-04-18T23:52:42.643Z,99.90
2023-04-18T23:55:11.233Z,99.90
2023-04-18T23:57:39.378Z,99.90
